Mayfield, Utah
Current Conditions -  °F | °C
As of 2:15 AM on Wednesday 22 Oct 2014 (Local Time) from KDTA Reporting Station
Clear Clear  
Wind Chill: 38°   Ceiling: Unl
Heat Index: 42°   Visibility: 10mi
Dew Point: 22°   Wind: 7mph
Humidity: 44%   Direction: 10°N
Pressure: 30.1"   Gusts: NA
Location:  39.11°N, 111.71°W
Report Text: KDTA 220815Z AUTO 01006KT 10SM CLR 06/M05 A3010 RMK AO1 T00581055
Loading
Personal Weather Stations






























Interactive Weather Map
Tropical Storm Tracking
New forecast layout! Learn more

10-Day Weather Forecast

Advertisements
Track Severe Weather on mobile